sensor_id;sensor_type;location;lat;lon;timestamp;P1;durP1;ratioP1;P2;durP2;ratioP2
70414;SDS011;57837;52.064;113.478;2023-06-19T00:00:51;5.93;;;1.60;;
70414;SDS011;57837;52.064;113.478;2023-06-19T00:03:55;3.40;;;1.07;;
70414;SDS011;57837;52.064;113.478;2023-06-19T00:06:59;5.53;;;1.25;;
70414;SDS011;57837;52.064;113.478;2023-06-19T00:10:04;6.72;;;1.35;;
70414;SDS011;57837;52.064;113.478;2023-06-19T00:13:09;6.68;;;1.27;;
70414;SDS011;57837;52.064;113.478;2023-06-19T00:16:13;8.90;;;2.88;;
70414;SDS011;57837;52.064;113.478;2023-06-19T00:19:17;3.90;;;1.57;;
70414;SDS011;57837;52.064;113.478;2023-06-19T00:22:21;6.50;;;2.40;;
70414;SDS011;57837;52.064;113.478;2023-06-19T00:25:25;6.63;;;1.70;;
70414;SDS011;57837;52.064;113.478;2023-06-19T00:28:51;9.75;;;2.50;;
70414;SDS011;57837;52.064;113.478;2023-06-19T00:31:56;7.75;;;2.05;;
70414;SDS011;57837;52.064;113.478;2023-06-19T00:34:59;9.57;;;2.20;;
70414;SDS011;57837;52.064;113.478;2023-06-19T00:38:05;8.65;;;2.33;;
70414;SDS011;57837;52.064;113.478;2023-06-19T00:41:08;9.65;;;2.08;;
70414;SDS011;57837;52.064;113.478;2023-06-19T00:44:12;7.15;;;1.70;;
70414;SDS011;57837;52.064;113.478;2023-06-19T00:47:16;4.95;;;1.40;;
70414;SDS011;57837;52.064;113.478;2023-06-19T00:50:21;2.10;;;1.10;;
70414;SDS011;57837;52.064;113.478;2023-06-19T00:53:25;2.97;;;1.30;;
70414;SDS011;57837;52.064;113.478;2023-06-19T00:56:29;3.22;;;1.17;;
70414;SDS011;57837;52.064;113.478;2023-06-19T00:59:33;5.22;;;1.13;;
70414;SDS011;57837;52.064;113.478;2023-06-19T01:02:36;8.13;;;1.55;;
70414;SDS011;57837;52.064;113.478;2023-06-19T01:05:42;5.23;;;1.20;;
70414;SDS011;57837;52.064;113.478;2023-06-19T01:08:56;3.33;;;1.38;;
70414;SDS011;57837;52.064;113.478;2023-06-19T01:12:08;4.18;;;1.10;;
70414;SDS011;57837;52.064;113.478;2023-06-19T01:15:18;2.78;;;1.02;;
70414;SDS011;57837;52.064;113.478;2023-06-19T01:18:23;4.00;;;1.00;;
70414;SDS011;57837;52.064;113.478;2023-06-19T01:21:29;4.23;;;1.03;;
70414;SDS011;57837;52.064;113.478;2023-06-19T01:24:34;2.70;;;1.27;;
70414;SDS011;57837;52.064;113.478;2023-06-19T01:27:38;6.95;;;1.63;;
70414;SDS011;57837;52.064;113.478;2023-06-19T01:30:42;4.50;;;1.52;;
70414;SDS011;57837;52.064;113.478;2023-06-19T01:33:46;7.07;;;1.50;;
70414;SDS011;57837;52.064;113.478;2023-06-19T01:36:52;3.63;;;1.60;;
70414;SDS011;57837;52.064;113.478;2023-06-19T01:40:01;4.85;;;1.60;;
70414;SDS011;57837;52.064;113.478;2023-06-19T01:43:08;5.80;;;1.30;;
70414;SDS011;57837;52.064;113.478;2023-06-19T01:46:13;6.78;;;1.33;;
70414;SDS011;57837;52.064;113.478;2023-06-19T01:49:17;2.60;;;1.30;;
70414;SDS011;57837;52.064;113.478;2023-06-19T01:52:21;4.23;;;1.60;;
70414;SDS011;57837;52.064;113.478;2023-06-19T01:55:25;10.50;;;1.98;;
70414;SDS011;57837;52.064;113.478;2023-06-19T01:58:30;2.20;;;1.30;;
70414;SDS011;57837;52.064;113.478;2023-06-19T02:01:35;3.20;;;1.40;;
70414;SDS011;57837;52.064;113.478;2023-06-19T02:04:38;3.67;;;1.20;;
70414;SDS011;57837;52.064;113.478;2023-06-19T02:07:42;2.60;;;1.33;;
70414;SDS011;57837;52.064;113.478;2023-06-19T02:10:46;4.03;;;1.90;;
70414;SDS011;57837;52.064;113.478;2023-06-19T02:13:50;3.28;;;2.17;;
70414;SDS011;57837;52.064;113.478;2023-06-19T02:16:54;5.93;;;1.90;;
70414;SDS011;57837;52.064;113.478;2023-06-19T02:19:58;7.43;;;2.67;;
70414;SDS011;57837;52.064;113.478;2023-06-19T02:23:02;5.50;;;1.87;;
70414;SDS011;57837;52.064;113.478;2023-06-19T02:26:06;4.15;;;2.10;;
70414;SDS011;57837;52.064;113.478;2023-06-19T02:29:10;2.95;;;1.98;;
70414;SDS011;57837;52.064;113.478;2023-06-19T02:32:14;4.28;;;1.73;;
70414;SDS011;57837;52.064;113.478;2023-06-19T02:35:18;4.05;;;2.10;;
70414;SDS011;57837;52.064;113.478;2023-06-19T02:38:22;4.00;;;1.70;;
70414;SDS011;57837;52.064;113.478;2023-06-19T02:41:26;2.13;;;1.58;;
70414;SDS011;57837;52.064;113.478;2023-06-19T02:44:31;6.57;;;1.73;;
70414;SDS011;57837;52.064;113.478;2023-06-19T02:47:34;4.50;;;2.08;;
70414;SDS011;57837;52.064;113.478;2023-06-19T02:50:40;2.95;;;2.10;;
70414;SDS011;57837;52.064;113.478;2023-06-19T02:53:44;3.60;;;2.00;;
70414;SDS011;57837;52.064;113.478;2023-06-19T02:56:48;3.22;;;2.03;;
70414;SDS011;57837;52.064;113.478;2023-06-19T02:59:52;2.75;;;2.00;;
70414;SDS011;57837;52.064;113.478;2023-06-19T03:02:56;2.35;;;1.90;;
70414;SDS011;57837;52.064;113.478;2023-06-19T03:06:00;5.13;;;2.20;;
70414;SDS011;57837;52.064;113.478;2023-06-19T03:09:04;4.43;;;2.17;;
70414;SDS011;57837;52.064;113.478;2023-06-19T03:12:08;5.38;;;2.40;;
70414;SDS011;57837;52.064;113.478;2023-06-19T03:15:13;4.78;;;2.20;;
70414;SDS011;57837;52.064;113.478;2023-06-19T03:18:21;6.82;;;2.45;;
70414;SDS011;57837;52.064;113.478;2023-06-19T03:21:26;3.78;;;2.08;;
70414;SDS011;57837;52.064;113.478;2023-06-19T03:24:30;4.07;;;2.37;;
70414;SDS011;57837;52.064;113.478;2023-06-19T03:27:47;5.25;;;2.33;;
70414;SDS011;57837;52.064;113.478;2023-06-19T03:30:51;3.22;;;1.77;;
70414;SDS011;57837;52.064;113.478;2023-06-19T03:33:57;3.85;;;2.05;;
70414;SDS011;57837;52.064;113.478;2023-06-19T03:37:02;4.35;;;2.05;;
70414;SDS011;57837;52.064;113.478;2023-06-19T03:40:07;3.57;;;2.27;;
70414;SDS011;57837;52.064;113.478;2023-06-19T03:43:19;2.90;;;2.10;;
70414;SDS011;57837;52.064;113.478;2023-06-19T03:46:24;4.55;;;2.13;;
70414;SDS011;57837;52.064;113.478;2023-06-19T03:49:27;4.63;;;2.40;;
70414;SDS011;57837;52.064;113.478;2023-06-19T03:52:30;5.70;;;2.83;;
70414;SDS011;57837;52.064;113.478;2023-06-19T03:55:34;5.47;;;2.50;;
70414;SDS011;57837;52.064;113.478;2023-06-19T03:58:38;5.70;;;2.50;;
70414;SDS011;57837;52.064;113.478;2023-06-19T04:01:42;9.45;;;2.33;;
70414;SDS011;57837;52.064;113.478;2023-06-19T04:04:46;7.90;;;2.33;;
70414;SDS011;57837;52.064;113.478;2023-06-19T04:07:52;6.47;;;2.70;;
70414;SDS011;57837;52.064;113.478;2023-06-19T04:10:56;5.93;;;2.70;;
70414;SDS011;57837;52.064;113.478;2023-06-19T04:14:02;8.40;;;2.60;;
70414;SDS011;57837;52.064;113.478;2023-06-19T04:17:06;4.97;;;2.63;;
70414;SDS011;57837;52.064;113.478;2023-06-19T04:20:09;6.05;;;3.05;;
70414;SDS011;57837;52.064;113.478;2023-06-19T04:23:14;4.05;;;2.75;;
70414;SDS011;57837;52.064;113.478;2023-06-19T04:26:18;4.77;;;2.60;;
70414;SDS011;57837;52.064;113.478;2023-06-19T04:29:22;6.57;;;2.90;;
70414;SDS011;57837;52.064;113.478;2023-06-19T04:32:26;5.68;;;3.05;;
70414;SDS011;57837;52.064;113.478;2023-06-19T04:35:30;5.68;;;2.83;;
70414;SDS011;57837;52.064;113.478;2023-06-19T04:38:34;5.28;;;3.05;;
70414;SDS011;57837;52.064;113.478;2023-06-19T04:41:38;3.77;;;3.27;;
70414;SDS011;57837;52.064;113.478;2023-06-19T04:44:44;7.32;;;2.80;;
70414;SDS011;57837;52.064;113.478;2023-06-19T04:47:48;4.47;;;2.80;;
70414;SDS011;57837;52.064;113.478;2023-06-19T04:50:55;5.03;;;3.13;;
70414;SDS011;57837;52.064;113.478;2023-06-19T04:54:00;5.82;;;2.70;;
70414;SDS011;57837;52.064;113.478;2023-06-19T04:57:04;4.60;;;2.77;;
70414;SDS011;57837;52.064;113.478;2023-06-19T05:00:08;4.10;;;2.80;;
70414;SDS011;57837;52.064;113.478;2023-06-19T05:03:18;10.00;;;4.07;;
70414;SDS011;57837;52.064;113.478;2023-06-19T05:06:22;6.60;;;3.20;;
70414;SDS011;57837;52.064;113.478;2023-06-19T05:09:27;3.80;;;2.85;;
70414;SDS011;57837;52.064;113.478;2023-06-19T05:12:31;6.73;;;3.30;;
70414;SDS011;57837;52.064;113.478;2023-06-19T05:15:35;7.75;;;3.20;;
70414;SDS011;57837;52.064;113.478;2023-06-19T05:18:39;8.38;;;3.88;;
70414;SDS011;57837;52.064;113.478;2023-06-19T05:21:43;9.23;;;3.45;;
70414;SDS011;57837;52.064;113.478;2023-06-19T05:24:47;5.53;;;2.97;;
70414;SDS011;57837;52.064;113.478;2023-06-19T05:27:51;4.33;;;3.00;;
70414;SDS011;57837;52.064;113.478;2023-06-19T05:30:55;6.15;;;3.47;;
70414;SDS011;57837;52.064;113.478;2023-06-19T05:33:58;5.07;;;3.20;;
70414;SDS011;57837;52.064;113.478;2023-06-19T05:37:02;4.63;;;3.10;;
70414;SDS011;57837;52.064;113.478;2023-06-19T05:40:07;4.45;;;3.20;;
70414;SDS011;57837;52.064;113.478;2023-06-19T05:43:11;7.57;;;3.60;;
70414;SDS011;57837;52.064;113.478;2023-06-19T05:46:15;5.78;;;3.50;;
70414;SDS011;57837;52.064;113.478;2023-06-19T05:49:19;7.85;;;3.63;;
70414;SDS011;57837;52.064;113.478;2023-06-19T05:52:23;6.03;;;3.47;;
70414;SDS011;57837;52.064;113.478;2023-06-19T05:55:27;5.60;;;3.78;;
70414;SDS011;57837;52.064;113.478;2023-06-19T05:58:32;5.33;;;3.27;;
70414;SDS011;57837;52.064;113.478;2023-06-19T06:01:36;6.15;;;3.30;;
70414;SDS011;57837;52.064;113.478;2023-06-19T06:04:40;4.47;;;3.00;;
70414;SDS011;57837;52.064;113.478;2023-06-19T06:07:44;5.82;;;3.33;;
70414;SDS011;57837;52.064;113.478;2023-06-19T06:10:48;5.20;;;3.15;;
70414;SDS011;57837;52.064;113.478;2023-06-19T06:13:52;7.43;;;3.30;;
70414;SDS011;57837;52.064;113.478;2023-06-19T06:16:56;4.22;;;3.13;;
70414;SDS011;57837;52.064;113.478;2023-06-19T06:19:59;5.75;;;3.25;;
70414;SDS011;57837;52.064;113.478;2023-06-19T06:23:04;3.90;;;3.30;;
70414;SDS011;57837;52.064;113.478;2023-06-19T06:26:08;5.90;;;3.30;;
70414;SDS011;57837;52.064;113.478;2023-06-19T06:29:12;6.07;;;3.40;;
70414;SDS011;57837;52.064;113.478;2023-06-19T06:32:16;7.28;;;3.42;;
70414;SDS011;57837;52.064;113.478;2023-06-19T06:35:21;7.35;;;3.67;;
70414;SDS011;57837;52.064;113.478;2023-06-19T06:38:25;5.63;;;3.53;;
70414;SDS011;57837;52.064;113.478;2023-06-19T06:41:30;6.68;;;3.67;;
70414;SDS011;57837;52.064;113.478;2023-06-19T06:44:33;5.80;;;3.00;;
70414;SDS011;57837;52.064;113.478;2023-06-19T06:47:38;6.03;;;3.67;;
70414;SDS011;57837;52.064;113.478;2023-06-19T06:50:43;6.18;;;3.60;;
70414;SDS011;57837;52.064;113.478;2023-06-19T06:53:47;5.32;;;3.08;;
70414;SDS011;57837;52.064;113.478;2023-06-19T06:56:50;4.43;;;3.05;;
70414;SDS011;57837;52.064;113.478;2023-06-19T06:59:56;4.43;;;3.40;;
70414;SDS011;57837;52.064;113.478;2023-06-19T07:02:59;7.45;;;3.33;;
70414;SDS011;57837;52.064;113.478;2023-06-19T07:06:03;12.13;;;3.13;;
70414;SDS011;57837;52.064;113.478;2023-06-19T07:09:07;8.43;;;3.00;;
70414;SDS011;57837;52.064;113.478;2023-06-19T07:12:11;6.35;;;3.20;;
70414;SDS011;57837;52.064;113.478;2023-06-19T07:15:14;5.63;;;3.40;;
70414;SDS011;57837;52.064;113.478;2023-06-19T07:18:18;5.15;;;3.22;;
70414;SDS011;57837;52.064;113.478;2023-06-19T07:21:21;6.85;;;3.30;;
70414;SDS011;57837;52.064;113.478;2023-06-19T07:24:25;4.28;;;3.15;;
70414;SDS011;57837;52.064;113.478;2023-06-19T07:27:29;5.22;;;2.80;;
70414;SDS011;57837;52.064;113.478;2023-06-19T07:30:32;6.43;;;2.27;;
70414;SDS011;57837;52.064;113.478;2023-06-19T07:33:35;5.60;;;2.50;;
70414;SDS011;57837;52.064;113.478;2023-06-19T07:36:39;3.78;;;2.80;;
70414;SDS011;57837;52.064;113.478;2023-06-19T07:39:44;5.00;;;2.67;;
70414;SDS011;57837;52.064;113.478;2023-06-19T07:42:48;4.80;;;3.15;;
70414;SDS011;57837;52.064;113.478;2023-06-19T07:45:52;6.37;;;3.10;;
70414;SDS011;57837;52.064;113.478;2023-06-19T07:48:56;3.47;;;2.65;;
70414;SDS011;57837;52.064;113.478;2023-06-19T07:52:00;3.83;;;2.42;;
70414;SDS011;57837;52.064;113.478;2023-06-19T07:55:03;7.13;;;2.80;;
70414;SDS011;57837;52.064;113.478;2023-06-19T07:58:07;9.63;;;3.30;;
70414;SDS011;57837;52.064;113.478;2023-06-19T08:01:10;6.47;;;3.07;;
70414;SDS011;57837;52.064;113.478;2023-06-19T08:04:13;6.82;;;2.95;;
70414;SDS011;57837;52.064;113.478;2023-06-19T08:07:17;4.18;;;3.25;;
70414;SDS011;57837;52.064;113.478;2023-06-19T08:10:21;5.25;;;3.60;;
70414;SDS011;57837;52.064;113.478;2023-06-19T08:13:25;4.30;;;3.17;;
70414;SDS011;57837;52.064;113.478;2023-06-19T08:16:29;7.17;;;3.60;;
70414;SDS011;57837;52.064;113.478;2023-06-19T08:19:33;4.55;;;3.05;;
70414;SDS011;57837;52.064;113.478;2023-06-19T08:22:36;4.95;;;3.72;;
70414;SDS011;57837;52.064;113.478;2023-06-19T08:25:40;5.05;;;3.60;;
70414;SDS011;57837;52.064;113.478;2023-06-19T08:28:43;7.72;;;3.70;;
70414;SDS011;57837;52.064;113.478;2023-06-19T08:31:48;6.17;;;3.77;;
70414;SDS011;57837;52.064;113.478;2023-06-19T08:34:51;6.13;;;3.60;;
70414;SDS011;57837;52.064;113.478;2023-06-19T08:37:54;8.38;;;3.80;;
70414;SDS011;57837;52.064;113.478;2023-06-19T08:40:58;5.18;;;3.60;;
70414;SDS011;57837;52.064;113.478;2023-06-19T08:44:02;5.32;;;3.50;;
70414;SDS011;57837;52.064;113.478;2023-06-19T08:47:06;4.30;;;3.77;;
70414;SDS011;57837;52.064;113.478;2023-06-19T08:50:10;5.38;;;3.72;;
70414;SDS011;57837;52.064;113.478;2023-06-19T08:53:13;7.43;;;4.22;;
70414;SDS011;57837;52.064;113.478;2023-06-19T08:56:16;5.35;;;4.20;;
70414;SDS011;57837;52.064;113.478;2023-06-19T08:59:20;4.88;;;4.05;;
70414;SDS011;57837;52.064;113.478;2023-06-19T09:02:24;6.70;;;3.43;;
70414;SDS011;57837;52.064;113.478;2023-06-19T09:06:02;4.68;;;3.70;;
70414;SDS011;57837;52.064;113.478;2023-06-19T09:09:06;6.30;;;3.80;;
70414;SDS011;57837;52.064;113.478;2023-06-19T09:12:16;7.07;;;3.95;;
70414;SDS011;57837;52.064;113.478;2023-06-19T09:15:31;6.97;;;4.20;;
70414;SDS011;57837;52.064;113.478;2023-06-19T09:18:45;10.17;;;4.40;;
70414;SDS011;57837;52.064;113.478;2023-06-19T09:21:53;5.47;;;4.00;;
70414;SDS011;57837;52.064;113.478;2023-06-19T09:24:59;7.93;;;3.67;;
70414;SDS011;57837;52.064;113.478;2023-06-19T09:28:04;6.07;;;3.92;;
70414;SDS011;57837;52.064;113.478;2023-06-19T09:31:07;6.00;;;3.70;;
70414;SDS011;57837;52.064;113.478;2023-06-19T09:34:11;7.70;;;3.43;;
70414;SDS011;57837;52.064;113.478;2023-06-19T09:37:15;6.32;;;3.85;;
70414;SDS011;57837;52.064;113.478;2023-06-19T09:40:18;4.32;;;3.50;;
70414;SDS011;57837;52.064;113.478;2023-06-19T09:43:24;6.78;;;4.45;;
70414;SDS011;57837;52.064;113.478;2023-06-19T09:46:33;5.63;;;4.18;;
70414;SDS011;57837;52.064;113.478;2023-06-19T09:49:39;7.40;;;3.87;;
70414;SDS011;57837;52.064;113.478;2023-06-19T09:52:44;9.05;;;3.90;;
70414;SDS011;57837;52.064;113.478;2023-06-19T09:55:49;11.73;;;4.60;;
70414;SDS011;57837;52.064;113.478;2023-06-19T09:58:53;7.90;;;4.35;;
70414;SDS011;57837;52.064;113.478;2023-06-19T10:01:59;5.45;;;3.60;;
70414;SDS011;57837;52.064;113.478;2023-06-19T10:05:03;4.97;;;4.20;;
70414;SDS011;57837;52.064;113.478;2023-06-19T10:08:08;4.78;;;4.25;;
70414;SDS011;57837;52.064;113.478;2023-06-19T10:11:13;7.43;;;4.80;;
70414;SDS011;57837;52.064;113.478;2023-06-19T10:14:18;10.52;;;4.40;;
70414;SDS011;57837;52.064;113.478;2023-06-19T10:17:22;6.35;;;4.80;;
70414;SDS011;57837;52.064;113.478;2023-06-19T10:20:33;11.43;;;8.87;;
70414;SDS011;57837;52.064;113.478;2023-06-19T10:24:22;7.32;;;5.07;;
70414;SDS011;57837;52.064;113.478;2023-06-19T10:27:21;11.50;;;5.57;;
70414;SDS011;57837;52.064;113.478;2023-06-19T10:30:27;5.05;;;4.07;;
70414;SDS011;57837;52.064;113.478;2023-06-19T10:33:33;5.80;;;4.20;;
70414;SDS011;57837;52.064;113.478;2023-06-19T10:36:39;8.13;;;4.27;;
70414;SDS011;57837;52.064;113.478;2023-06-19T10:39:42;9.43;;;4.90;;
70414;SDS011;57837;52.064;113.478;2023-06-19T10:42:47;9.02;;;4.75;;
70414;SDS011;57837;52.064;113.478;2023-06-19T10:45:50;6.25;;;4.20;;
70414;SDS011;57837;52.064;113.478;2023-06-19T10:48:55;6.00;;;4.20;;
70414;SDS011;57837;52.064;113.478;2023-06-19T10:52:03;6.47;;;4.43;;
70414;SDS011;57837;52.064;113.478;2023-06-19T10:55:07;5.65;;;3.92;;
70414;SDS011;57837;52.064;113.478;2023-06-19T10:58:10;5.57;;;4.20;;
70414;SDS011;57837;52.064;113.478;2023-06-19T11:01:14;12.63;;;4.25;;
70414;SDS011;57837;52.064;113.478;2023-06-19T11:04:18;5.70;;;4.13;;
70414;SDS011;57837;52.064;113.478;2023-06-19T11:07:24;4.70;;;3.83;;
70414;SDS011;57837;52.064;113.478;2023-06-19T11:10:27;6.22;;;4.53;;
70414;SDS011;57837;52.064;113.478;2023-06-19T11:13:32;6.35;;;4.20;;
70414;SDS011;57837;52.064;113.478;2023-06-19T11:16:44;8.05;;;4.93;;
70414;SDS011;57837;52.064;113.478;2023-06-19T11:19:49;8.00;;;4.38;;
70414;SDS011;57837;52.064;113.478;2023-06-19T11:22:57;7.50;;;4.20;;
70414;SDS011;57837;52.064;113.478;2023-06-19T11:26:02;8.38;;;4.50;;
70414;SDS011;57837;52.064;113.478;2023-06-19T11:29:13;14.18;;;5.10;;
70414;SDS011;57837;52.064;113.478;2023-06-19T11:32:20;10.02;;;5.10;;
70414;SDS011;57837;52.064;113.478;2023-06-19T11:35:33;10.07;;;5.15;;
70414;SDS011;57837;52.064;113.478;2023-06-19T11:38:40;13.10;;;6.10;;
70414;SDS011;57837;52.064;113.478;2023-06-19T11:41:44;10.02;;;6.50;;
70414;SDS011;57837;52.064;113.478;2023-06-19T11:44:52;15.77;;;9.95;;
70414;SDS011;57837;52.064;113.478;2023-06-19T11:47:59;19.70;;;9.18;;
70414;SDS011;57837;52.064;113.478;2023-06-19T11:51:08;12.32;;;6.13;;
70414;SDS011;57837;52.064;113.478;2023-06-19T11:54:13;9.87;;;5.07;;
70414;SDS011;57837;52.064;113.478;2023-06-19T11:57:17;9.40;;;4.82;;
70414;SDS011;57837;52.064;113.478;2023-06-19T12:00:20;13.48;;;4.90;;
70414;SDS011;57837;52.064;113.478;2023-06-19T12:03:25;8.93;;;4.72;;
70414;SDS011;57837;52.064;113.478;2023-06-19T12:06:29;11.02;;;4.28;;
70414;SDS011;57837;52.064;113.478;2023-06-19T12:09:33;15.57;;;4.97;;
70414;SDS011;57837;52.064;113.478;2023-06-19T12:12:37;7.72;;;4.28;;
70414;SDS011;57837;52.064;113.478;2023-06-19T12:15:42;9.52;;;5.43;;
70414;SDS011;57837;52.064;113.478;2023-06-19T12:18:46;15.07;;;5.25;;
70414;SDS011;57837;52.064;113.478;2023-06-19T12:21:50;9.02;;;4.88;;
70414;SDS011;57837;52.064;113.478;2023-06-19T12:24:54;14.80;;;5.70;;
70414;SDS011;57837;52.064;113.478;2023-06-19T12:27:58;9.55;;;5.22;;
70414;SDS011;57837;52.064;113.478;2023-06-19T12:31:01;6.93;;;4.60;;
70414;SDS011;57837;52.064;113.478;2023-06-19T12:34:06;11.52;;;5.07;;
70414;SDS011;57837;52.064;113.478;2023-06-19T12:37:14;12.23;;;6.20;;
70414;SDS011;57837;52.064;113.478;2023-06-19T12:40:20;16.83;;;5.00;;
70414;SDS011;57837;52.064;113.478;2023-06-19T12:43:23;13.48;;;5.13;;
70414;SDS011;57837;52.064;113.478;2023-06-19T12:46:26;17.15;;;5.95;;
70414;SDS011;57837;52.064;113.478;2023-06-19T12:49:30;10.38;;;5.15;;
70414;SDS011;57837;52.064;113.478;2023-06-19T12:52:34;8.75;;;4.35;;
70414;SDS011;57837;52.064;113.478;2023-06-19T12:55:37;6.97;;;4.43;;
70414;SDS011;57837;52.064;113.478;2023-06-19T12:59:01;8.68;;;4.35;;
70414;SDS011;57837;52.064;113.478;2023-06-19T13:02:05;10.68;;;4.43;;
70414;SDS011;57837;52.064;113.478;2023-06-19T13:05:09;9.77;;;4.97;;
70414;SDS011;57837;52.064;113.478;2023-06-19T13:08:15;9.35;;;5.60;;
70414;SDS011;57837;52.064;113.478;2023-06-19T13:11:18;10.50;;;5.80;;
70414;SDS011;57837;52.064;113.478;2023-06-19T13:14:23;19.08;;;4.93;;
70414;SDS011;57837;52.064;113.478;2023-06-19T13:17:26;15.57;;;4.80;;
70414;SDS011;57837;52.064;113.478;2023-06-19T13:20:31;11.43;;;5.30;;
70414;SDS011;57837;52.064;113.478;2023-06-19T13:23:35;12.43;;;4.30;;
70414;SDS011;57837;52.064;113.478;2023-06-19T13:26:39;9.80;;;4.30;;
70414;SDS011;57837;52.064;113.478;2023-06-19T13:29:43;7.38;;;4.53;;
70414;SDS011;57837;52.064;113.478;2023-06-19T13:32:47;10.43;;;4.55;;
70414;SDS011;57837;52.064;113.478;2023-06-19T13:35:50;11.57;;;4.28;;
70414;SDS011;57837;52.064;113.478;2023-06-19T13:38:55;11.70;;;4.67;;
70414;SDS011;57837;52.064;113.478;2023-06-19T13:42:00;10.80;;;4.70;;
70414;SDS011;57837;52.064;113.478;2023-06-19T13:45:05;8.63;;;4.28;;
70414;SDS011;57837;52.064;113.478;2023-06-19T13:48:08;11.75;;;4.85;;
70414;SDS011;57837;52.064;113.478;2023-06-19T13:51:12;7.40;;;4.60;;
70414;SDS011;57837;52.064;113.478;2023-06-19T13:54:16;12.00;;;4.77;;
70414;SDS011;57837;52.064;113.478;2023-06-19T13:57:19;10.60;;;4.53;;
70414;SDS011;57837;52.064;113.478;2023-06-19T14:00:23;9.27;;;5.05;;
70414;SDS011;57837;52.064;113.478;2023-06-19T14:03:26;11.68;;;5.30;;
70414;SDS011;57837;52.064;113.478;2023-06-19T14:06:31;11.70;;;5.25;;
70414;SDS011;57837;52.064;113.478;2023-06-19T14:09:34;11.07;;;4.90;;
70414;SDS011;57837;52.064;113.478;2023-06-19T14:12:38;9.47;;;5.40;;
70414;SDS011;57837;52.064;113.478;2023-06-19T14:15:42;10.82;;;5.80;;
70414;SDS011;57837;52.064;113.478;2023-06-19T14:18:46;9.60;;;5.22;;
70414;SDS011;57837;52.064;113.478;2023-06-19T14:21:49;9.20;;;5.82;;
70414;SDS011;57837;52.064;113.478;2023-06-19T14:24:54;13.83;;;6.00;;
70414;SDS011;57837;52.064;113.478;2023-06-19T14:28:03;12.70;;;6.07;;
70414;SDS011;57837;52.064;113.478;2023-06-19T14:31:08;11.77;;;6.22;;
70414;SDS011;57837;52.064;113.478;2023-06-19T14:34:12;12.10;;;8.23;;
70414;SDS011;57837;52.064;113.478;2023-06-19T14:37:15;19.65;;;10.90;;
70414;SDS011;57837;52.064;113.478;2023-06-19T14:40:19;20.27;;;9.33;;
70414;SDS011;57837;52.064;113.478;2023-06-19T14:43:23;16.87;;;8.03;;
70414;SDS011;57837;52.064;113.478;2023-06-19T14:46:28;22.08;;;7.90;;
70414;SDS011;57837;52.064;113.478;2023-06-19T14:49:34;17.50;;;8.07;;
70414;SDS011;57837;52.064;113.478;2023-06-19T14:52:39;17.75;;;8.63;;
70414;SDS011;57837;52.064;113.478;2023-06-19T14:55:42;19.57;;;8.83;;
70414;SDS011;57837;52.064;113.478;2023-06-19T14:58:48;24.70;;;9.60;;
70414;SDS011;57837;52.064;113.478;2023-06-19T15:01:52;12.95;;;7.15;;
70414;SDS011;57837;52.064;113.478;2023-06-19T15:04:56;16.35;;;7.38;;
70414;SDS011;57837;52.064;113.478;2023-06-19T15:08:08;15.65;;;7.20;;
70414;SDS011;57837;52.064;113.478;2023-06-19T15:11:13;21.87;;;10.30;;
70414;SDS011;57837;52.064;113.478;2023-06-19T15:14:17;22.10;;;10.77;;
70414;SDS011;57837;52.064;113.478;2023-06-19T15:17:23;21.98;;;9.70;;
70414;SDS011;57837;52.064;113.478;2023-06-19T15:20:26;20.55;;;10.73;;
70414;SDS011;57837;52.064;113.478;2023-06-19T15:23:31;23.60;;;11.50;;
70414;SDS011;57837;52.064;113.478;2023-06-19T15:26:35;21.37;;;10.37;;
70414;SDS011;57837;52.064;113.478;2023-06-19T15:29:41;20.17;;;10.07;;
70414;SDS011;57837;52.064;113.478;2023-06-19T15:32:44;14.65;;;8.70;;
70414;SDS011;57837;52.064;113.478;2023-06-19T15:35:49;15.65;;;7.90;;
70414;SDS011;57837;52.064;113.478;2023-06-19T15:38:53;15.77;;;7.03;;
70414;SDS011;57837;52.064;113.478;2023-06-19T15:41:57;13.33;;;6.90;;
70414;SDS011;57837;52.064;113.478;2023-06-19T15:45:01;13.37;;;6.80;;
70414;SDS011;57837;52.064;113.478;2023-06-19T15:48:05;16.13;;;7.78;;
70414;SDS011;57837;52.064;113.478;2023-06-19T15:51:09;15.48;;;7.60;;
70414;SDS011;57837;52.064;113.478;2023-06-19T15:54:13;15.77;;;8.18;;
70414;SDS011;57837;52.064;113.478;2023-06-19T15:57:17;14.43;;;6.30;;
70414;SDS011;57837;52.064;113.478;2023-06-19T16:00:21;13.57;;;7.00;;
70414;SDS011;57837;52.064;113.478;2023-06-19T16:03:25;11.82;;;6.38;;
70414;SDS011;57837;52.064;113.478;2023-06-19T16:06:31;10.68;;;5.65;;
70414;SDS011;57837;52.064;113.478;2023-06-19T16:09:35;12.43;;;5.75;;
70414;SDS011;57837;52.064;113.478;2023-06-19T16:12:55;14.20;;;5.83;;
70414;SDS011;57837;52.064;113.478;2023-06-19T16:15:59;7.70;;;4.83;;
70414;SDS011;57837;52.064;113.478;2023-06-19T16:19:03;9.90;;;5.53;;
70414;SDS011;57837;52.064;113.478;2023-06-19T16:22:06;12.05;;;4.97;;
70414;SDS011;57837;52.064;113.478;2023-06-19T16:25:10;24.95;;;18.17;;
70414;SDS011;57837;52.064;113.478;2023-06-19T16:28:14;9.00;;;5.67;;
70414;SDS011;57837;52.064;113.478;2023-06-19T16:31:17;12.40;;;7.27;;
70414;SDS011;57837;52.064;113.478;2023-06-19T16:34:22;11.95;;;5.75;;
70414;SDS011;57837;52.064;113.478;2023-06-19T16:37:26;16.55;;;6.72;;
70414;SDS011;57837;52.064;113.478;2023-06-19T16:40:30;14.38;;;5.93;;
70414;SDS011;57837;52.064;113.478;2023-06-19T16:43:33;10.13;;;5.83;;
70414;SDS011;57837;52.064;113.478;2023-06-19T16:46:37;8.27;;;5.40;;
70414;SDS011;57837;52.064;113.478;2023-06-19T16:49:41;11.27;;;5.72;;
70414;SDS011;57837;52.064;113.478;2023-06-19T16:52:44;11.10;;;5.70;;
70414;SDS011;57837;52.064;113.478;2023-06-19T16:55:48;10.05;;;5.65;;
70414;SDS011;57837;52.064;113.478;2023-06-19T16:58:53;10.70;;;5.83;;
70414;SDS011;57837;52.064;113.478;2023-06-19T17:01:57;9.77;;;5.77;;
70414;SDS011;57837;52.064;113.478;2023-06-19T17:05:00;7.63;;;4.95;;
70414;SDS011;57837;52.064;113.478;2023-06-19T17:08:04;10.07;;;5.40;;
70414;SDS011;57837;52.064;113.478;2023-06-19T17:11:07;11.98;;;5.28;;
70414;SDS011;57837;52.064;113.478;2023-06-19T17:14:11;10.43;;;5.70;;
70414;SDS011;57837;52.064;113.478;2023-06-19T17:17:15;9.87;;;4.97;;
70414;SDS011;57837;52.064;113.478;2023-06-19T17:20:19;8.27;;;5.47;;
70414;SDS011;57837;52.064;113.478;2023-06-19T17:23:23;7.95;;;5.35;;
70414;SDS011;57837;52.064;113.478;2023-06-19T17:26:27;9.85;;;4.78;;
70414;SDS011;57837;52.064;113.478;2023-06-19T17:29:30;8.57;;;4.67;;
70414;SDS011;57837;52.064;113.478;2023-06-19T17:32:34;7.00;;;4.53;;
70414;SDS011;57837;52.064;113.478;2023-06-19T17:35:38;7.90;;;4.53;;
70414;SDS011;57837;52.064;113.478;2023-06-19T17:38:41;7.13;;;4.60;;
70414;SDS011;57837;52.064;113.478;2023-06-19T17:41:45;7.20;;;4.82;;
70414;SDS011;57837;52.064;113.478;2023-06-19T17:44:51;10.03;;;5.10;;
70414;SDS011;57837;52.064;113.478;2023-06-19T17:47:55;10.07;;;5.17;;
70414;SDS011;57837;52.064;113.478;2023-06-19T17:50:59;9.20;;;4.93;;
70414;SDS011;57837;52.064;113.478;2023-06-19T17:54:03;5.93;;;4.22;;
70414;SDS011;57837;52.064;113.478;2023-06-19T17:57:07;9.90;;;4.85;;